Time;durP1;ratioP1;P1;durP2;ratioP2;P2;SDS_P1;SDS_P2;PMS_P1;PMS_P2;Temp;Humidity;BMP_temperature;BMP_pressure;BME280_temperature;BME280_humidity;BME280_pressure;Samples;Min_cycle;Max_cycle;Signal;HPM_P1;HPM_P2
2024/04/21 00:02:21;;;;;;;3.45;1.85;;;6.00;82.30;;;;;;5467214;26;20016;-62
2024/04/21 00:04:47;;;;;;;2.53;1.95;;;6.00;82.30;;;;;;5477450;26;20460;-62
2024/04/21 00:07:12;;;;;;;2.63;2.00;;;6.00;82.10;;;;;;5467826;26;19999;-62
2024/04/21 00:09:38;;;;;;;2.00;1.80;;;6.00;82.20;;;;;;5473542;26;20793;-61
2024/04/21 00:12:04;;;;;;;3.35;2.00;;;6.10;82.40;;;;;;5477035;26;19995;-61
2024/04/21 00:14:30;;;;;;;1.95;1.85;;;6.10;82.30;;;;;;5477230;26;20006;-62
2024/04/21 00:16:55;;;;;;;2.78;2.25;;;6.10;82.40;;;;;;5474956;26;20004;-62
2024/04/21 00:19:21;;;;;;;1.83;1.73;;;6.10;82.30;;;;;;5472972;26;20002;-61
2024/04/21 00:21:47;;;;;;;1.98;1.88;;;6.10;82.10;;;;;;5479850;26;20336;-62
2024/04/21 00:24:12;;;;;;;2.20;1.70;;;6.10;82.00;;;;;;5458771;26;20006;-63
2024/04/21 00:26:38;;;;;;;1.95;1.85;;;6.10;81.80;;;;;;5466103;26;20481;-63
2024/04/21 00:29:04;;;;;;;2.45;1.95;;;6.10;81.80;;;;;;5474602;26;20026;-62
2024/04/21 00:31:30;;;;;;;2.35;2.15;;;6.10;81.80;;;;;;5472329;26;20010;-63
2024/04/21 00:33:55;;;;;;;2.10;1.70;;;6.10;81.80;;;;;;5472556;26;19994;-61
2024/04/21 00:36:21;;;;;;;2.17;1.80;;;6.10;81.90;;;;;;5440451;26;20003;-62
2024/04/21 00:38:47;;;;;;;2.22;1.80;;;6.20;82.00;;;;;;5476941;26;20012;-63
2024/04/21 00:41:13;;;;;;;3.47;2.10;;;6.20;82.00;;;;;;5479701;26;20006;-63
2024/04/21 00:43:39;;;;;;;1.80;1.70;;;6.20;81.90;;;;;;5472808;26;20013;-62
2024/04/21 00:46:05;;;;;;;1.92;1.70;;;6.20;81.80;;;;;;5466665;26;20339;-61
2024/04/21 00:48:32;;;;;;;1.70;1.60;;;6.20;81.70;;;;;;5468733;26;20001;-62
2024/04/21 00:50:58;;;;;;;2.50;1.95;;;6.30;81.60;;;;;;5465692;26;19994;-61
2024/04/21 00:53:24;;;;;;;1.65;1.55;;;6.20;81.40;;;;;;5428750;26;19994;-62
2024/04/21 00:55:51;;;;;;;2.50;1.80;;;6.20;81.40;;;;;;5467440;26;20452;-63
2024/04/21 00:58:18;;;;;;;1.98;1.80;;;6.20;81.40;;;;;;5468298;26;20044;-63
2024/04/21 01:00:44;;;;;;;1.88;1.77;;;6.20;81.50;;;;;;5470665;26;19990;-62
2024/04/21 01:03:10;;;;;;;1.80;1.70;;;6.20;81.50;;;;;;5473272;26;20090;-62
2024/04/21 01:05:36;;;;;;;2.00;1.75;;;6.20;81.60;;;;;;5473394;26;20449;-63
2024/04/21 01:08:02;;;;;;;1.80;1.67;;;6.20;81.60;;;;;;5472673;26;20006;-63
2024/04/21 01:10:27;;;;;;;1.70;1.60;;;6.20;81.70;;;;;;5471644;26;20502;-61
2024/04/21 01:12:53;;;;;;;1.80;1.70;;;6.10;81.60;;;;;;5466525;26;20404;-63
2024/04/21 01:15:18;;;;;;;1.95;1.80;;;6.20;81.70;;;;;;5429883;26;19990;-61
2024/04/21 01:17:44;;;;;;;1.75;1.65;;;6.20;81.80;;;;;;5469189;26;20066;-62
2024/04/21 01:20:11;;;;;;;1.98;1.88;;;6.20;81.80;;;;;;5467031;26;19995;-63
2024/04/21 01:22:47;;;;;;;1.75;1.65;;;6.10;81.80;;;;;;5470761;26;20016;-63
2024/04/21 01:25:13;;;;;;;1.92;1.73;;;6.20;82.00;;;;;;5465836;26;20068;-61
2024/04/21 01:27:39;;;;;;;1.80;1.65;;;6.10;81.80;;;;;;5463000;26;20474;-63
2024/04/21 01:30:05;;;;;;;1.95;1.85;;;6.10;81.90;;;;;;5472857;26;20006;-63
2024/04/21 01:32:30;;;;;;;2.00;1.90;;;6.10;81.90;;;;;;5467274;26;20323;-61
2024/04/21 01:34:56;;;;;;;1.58;1.48;;;6.10;82.00;;;;;;5464423;26;19994;-62
2024/04/21 01:37:21;;;;;;;1.80;1.70;;;6.10;82.00;;;;;;5463930;26;20062;-61
2024/04/21 01:39:47;;;;;;;1.77;1.67;;;6.00;82.00;;;;;;5466392;26;20006;-62
2024/04/21 01:42:13;;;;;;;1.60;1.50;;;6.00;82.10;;;;;;5475852;26;20021;-62
2024/04/21 01:44:38;;;;;;;3.15;1.77;;;6.00;83.00;;;;;;5474442;26;20009;-62
2024/04/21 01:47:04;;;;;;;1.70;1.60;;;6.00;82.30;;;;;;5468764;26;20092;-62
2024/04/21 01:49:29;;;;;;;4.45;1.60;;;6.00;82.40;;;;;;5468214;26;19991;-61
2024/04/21 01:51:55;;;;;;;1.55;1.45;;;6.00;82.50;;;;;;5468441;26;22101;-62
2024/04/21 01:54:21;;;;;;;2.08;1.48;;;6.00;82.60;;;;;;5467295;26;20005;-63
2024/04/21 01:56:47;;;;;;;1.42;1.33;;;6.00;82.60;;;;;;5470473;26;20030;-61
2024/04/21 01:59:12;;;;;;;1.48;1.38;;;6.00;82.70;;;;;;5460715;26;20485;-63
2024/04/21 02:01:38;;;;;;;1.92;1.33;;;5.90;82.70;;;;;;5467746;26;20518;-63
2024/04/21 02:04:03;;;;;;;1.60;1.50;;;5.90;82.80;;;;;;5465870;26;20018;-62
2024/04/21 02:06:29;;;;;;;1.70;1.60;;;6.00;82.80;;;;;;5465618;26;20057;-63
2024/04/21 02:08:55;;;;;;;1.50;1.40;;;5.90;82.80;;;;;;5474081;26;20039;-63
2024/04/21 02:11:20;;;;;;;2.10;1.40;;;5.90;82.90;;;;;;5470859;26;20018;-63
2024/04/21 02:13:46;;;;;;;1.50;1.40;;;5.90;83.00;;;;;;5467428;26;20006;-63
2024/04/21 02:16:11;;;;;;;1.40;1.30;;;5.90;83.00;;;;;;5470437;26;20034;-61
2024/04/21 02:18:37;;;;;;;1.70;1.60;;;5.90;83.00;;;;;;5475993;26;20075;-61
2024/04/21 02:21:03;;;;;;;1.30;1.20;;;5.90;83.00;;;;;;5476778;26;20013;-63
2024/04/21 02:23:29;;;;;;;1.40;1.30;;;5.90;83.00;;;;;;5471412;26;19994;-60
2024/04/21 02:25:58;;;;;;;2.20;1.52;;;5.90;83.00;;;;;;5468584;26;19999;-62
2024/04/21 02:28:24;;;;;;;1.52;1.42;;;5.90;83.10;;;;;;5469293;26;20039;-62
2024/04/21 02:30:49;;;;;;;1.35;1.25;;;5.90;83.00;;;;;;5468971;26;20026;-61
2024/04/21 02:33:15;;;;;;;3.13;1.20;;;5.80;83.10;;;;;;5443235;26;19990;-63
2024/04/21 02:35:41;;;;;;;1.30;1.20;;;5.80;83.30;;;;;;5472887;26;20465;-62
2024/04/21 02:38:07;;;;;;;1.42;1.30;;;5.80;83.30;;;;;;5462746;26;20002;-63
2024/04/21 02:40:33;;;;;;;1.95;1.10;;;5.80;83.30;;;;;;5471164;26;20384;-61
2024/04/21 02:42:58;;;;;;;1.27;1.17;;;5.80;83.30;;;;;;5472820;26;20002;-62
2024/04/21 02:45:24;;;;;;;1.13;1.02;;;5.80;83.40;;;;;;5471836;26;20002;-61
2024/04/21 02:47:50;;;;;;;1.67;1.00;;;5.90;83.30;;;;;;5470450;26;20063;-61
2024/04/21 02:50:15;;;;;;;1.38;1.10;;;5.80;83.40;;;;;;5468686;26;20009;-61
2024/04/21 02:52:41;;;;;;;0.90;0.90;;;5.80;83.40;;;;;;5471663;26;20468;-63
2024/04/21 02:55:06;;;;;;;1.75;1.00;;;5.80;83.50;;;;;;5476611;26;20010;-62
2024/04/21 02:57:33;;;;;;;1.13;1.05;;;5.80;83.50;;;;;;5472806;26;20008;-62
2024/04/21 02:59:59;;;;;;;2.60;1.17;;;5.80;83.60;;;;;;5464350;26;20009;-63
2024/04/21 03:02:25;;;;;;;1.20;1.10;;;5.80;83.50;;;;;;5475818;26;19998;-62
2024/04/21 03:04:50;;;;;;;1.20;1.10;;;5.80;83.60;;;;;;5471916;26;20453;-62
2024/04/21 03:07:17;;;;;;;2.20;1.25;;;5.90;83.70;;;;;;5470883;26;20461;-62
2024/04/21 03:09:43;;;;;;;1.58;1.10;;;5.80;83.70;;;;;;5469233;26;19991;-63
2024/04/21 03:12:09;;;;;;;1.35;1.20;;;5.80;83.90;;;;;;5468874;26;20007;-63
2024/04/21 03:14:35;;;;;;;1.30;1.20;;;5.80;83.90;;;;;;5475648;26;20002;-61
2024/04/21 03:17:02;;;;;;;1.13;1.00;;;5.80;83.90;;;;;;5477753;26;20062;-61
2024/04/21 03:19:28;;;;;;;1.45;0.95;;;5.80;83.80;;;;;;5474786;26;20006;-61
2024/04/21 03:21:55;;;;;;;1.10;1.10;;;5.70;83.80;;;;;;5468583;26;20070;-62
2024/04/21 03:24:21;;;;;;;1.10;1.00;;;5.70;83.90;;;;;;5472265;26;19994;-62
2024/04/21 03:26:47;;;;;;;2.33;1.10;;;5.70;83.90;;;;;;5470727;26;19998;-62
2024/04/21 03:29:12;;;;;;;2.10;1.20;;;5.70;83.90;;;;;;5461453;26;19995;-62
2024/04/21 03:31:38;;;;;;;1.58;1.17;;;5.70;84.00;;;;;;5464597;26;19999;-62
2024/04/21 03:34:03;;;;;;;2.38;1.10;;;5.70;84.20;;;;;;5472972;26;20354;-62
2024/04/21 03:36:29;;;;;;;1.80;1.02;;;5.70;84.40;;;;;;5472236;26;20025;-62
2024/04/21 03:38:55;;;;;;;1.50;1.05;;;5.70;84.30;;;;;;5473152;26;20004;-61
2024/04/21 03:41:21;;;;;;;3.55;1.27;;;5.70;84.30;;;;;;5469319;26;19998;-61
2024/04/21 03:43:47;;;;;;;2.03;1.30;;;5.70;84.20;;;;;;5467275;26;20014;-62
2024/04/21 03:46:13;;;;;;;2.28;1.30;;;5.70;84.20;;;;;;5474639;26;20342;-61
2024/04/21 03:48:40;;;;;;;1.27;0.95;;;5.70;84.10;;;;;;5469545;26;19997;-61
2024/04/21 03:51:05;;;;;;;1.40;1.23;;;5.60;84.00;;;;;;5469549;26;20006;-61
2024/04/21 03:53:31;;;;;;;1.75;1.15;;;5.60;84.00;;;;;;5471585;26;20071;-62
2024/04/21 03:55:58;;;;;;;1.33;1.23;;;5.60;84.00;;;;;;5470888;26;20045;-61
2024/04/21 03:58:23;;;;;;;2.50;1.20;;;5.60;84.00;;;;;;5468972;26;20023;-61
2024/04/21 04:00:49;;;;;;;1.60;1.50;;;5.60;84.20;;;;;;5468440;26;20084;-62
2024/04/21 04:03:16;;;;;;;2.40;1.40;;;5.60;84.40;;;;;;5467814;26;20446;-61
2024/04/21 04:05:43;;;;;;;1.60;1.50;;;5.60;84.40;;;;;;5478142;26;20002;-62
2024/04/21 04:08:09;;;;;;;2.10;1.25;;;5.60;84.50;;;;;;5475113;26;20035;-61
2024/04/21 04:10:35;;;;;;;1.60;1.38;;;5.60;84.50;;;;;;5473049;26;19995;-61
2024/04/21 04:13:00;;;;;;;2.45;1.30;;;5.50;84.60;;;;;;5469819;26;20006;-62
2024/04/21 04:15:26;;;;;;;1.48;1.38;;;5.50;84.60;;;;;;5471146;26;20457;-62
2024/04/21 04:17:51;;;;;;;1.30;1.20;;;5.60;84.80;;;;;;5471664;26;20026;-62
2024/04/21 04:20:17;;;;;;;1.70;1.40;;;5.50;84.80;;;;;;5466263;26;20011;-62
2024/04/21 04:22:43;;;;;;;1.50;1.40;;;5.60;84.90;;;;;;5469328;26;19998;-61
2024/04/21 04:25:09;;;;;;;1.65;1.55;;;5.60;85.10;;;;;;5479028;26;20075;-62
2024/04/21 04:27:34;;;;;;;2.08;1.42;;;5.60;85.10;;;;;;5477090;26;20010;-61
2024/04/21 04:30:00;;;;;;;1.60;1.50;;;5.60;84.90;;;;;;5471734;26;20368;-62
2024/04/21 04:32:29;;;;;;;4.18;1.90;;;5.60;84.90;;;;;;5459765;26;20008;-62
2024/04/21 04:34:55;;;;;;;1.92;1.65;;;5.50;85.10;;;;;;5461390;26;20014;-62
2024/04/21 04:37:20;;;;;;;3.05;1.67;;;5.50;85.10;;;;;;5472724;26;20346;-62
2024/04/21 04:39:47;;;;;;;4.15;3.67;;;5.50;85.30;;;;;;5467361;26;20018;-63
2024/04/21 04:42:12;;;;;;;4.00;3.00;;;5.50;85.40;;;;;;5466379;26;20379;-62
2024/04/21 04:44:38;;;;;;;3.65;3.30;;;5.50;85.40;;;;;;5473910;26;20357;-62
2024/04/21 04:47:03;;;;;;;2.95;2.58;;;5.60;85.40;;;;;;5467009;26;20489;-62
2024/04/21 04:49:29;;;;;;;4.32;2.92;;;5.50;85.40;;;;;;5473465;26;20074;-62
2024/04/21 04:51:55;;;;;;;2.50;2.15;;;5.50;85.40;;;;;;5476040;26;20449;-62
2024/04/21 04:54:20;;;;;;;2.85;1.70;;;5.50;85.40;;;;;;5467661;26;19994;-62
2024/04/21 04:56:46;;;;;;;1.90;1.80;;;5.60;85.60;;;;;;5464586;26;19994;-62
2024/04/21 04:59:11;;;;;;;3.35;2.00;;;5.60;85.60;;;;;;5459906;26;20363;-61
2024/04/21 05:01:37;;;;;;;2.53;2.00;;;5.60;86.50;;;;;;5466586;26;20069;-61
2024/04/21 05:04:03;;;;;;;2.25;2.05;;;5.60;85.50;;;;;;5468464;26;20006;-61
2024/04/21 05:06:29;;;;;;;2.17;2.00;;;5.60;85.50;;;;;;5461669;26;25722;-61
2024/04/21 05:08:55;;;;;;;1.90;1.80;;;5.60;85.40;;;;;;5479260;26;20005;-61
2024/04/21 05:11:20;;;;;;;2.28;1.90;;;5.50;85.50;;;;;;5469843;26;20009;-60
2024/04/21 05:13:46;;;;;;;3.03;1.77;;;5.50;85.80;;;;;;5462314;26;20019;-61
2024/04/21 05:16:11;;;;;;;1.83;1.70;;;5.50;85.80;;;;;;5471756;26;20070;-62
2024/04/21 05:18:37;;;;;;;3.85;2.25;;;5.60;86.00;;;;;;5473881;26;20017;-61
2024/04/21 05:21:03;;;;;;;2.78;2.30;;;5.50;86.10;;;;;;5470282;26;19990;-62
2024/04/21 05:23:30;;;;;;;2.75;1.77;;;5.50;86.10;;;;;;5471730;26;20464;-62
2024/04/21 05:25:56;;;;;;;2.20;2.00;;;5.60;86.10;;;;;;5458375;26;20067;-60
2024/04/21 05:28:22;;;;;;;2.35;2.15;;;5.60;86.00;;;;;;5470496;26;20010;-61
2024/04/21 05:30:47;;;;;;;3.58;2.60;;;5.60;86.10;;;;;;5461800;26;20360;-62
2024/04/21 05:33:13;;;;;;;2.88;2.50;;;5.60;86.30;;;;;;5466591;26;20340;-62
2024/04/21 05:35:41;;;;;;;3.58;2.72;;;5.60;86.30;;;;;;5465504;26;20009;-61
2024/04/21 05:38:07;;;;;;;3.35;2.50;;;5.60;86.40;;;;;;5466168;26;20779;-61
2024/04/21 05:40:32;;;;;;;4.72;2.72;;;5.60;86.30;;;;;;5468170;26;20010;-60
2024/04/21 05:42:58;;;;;;;3.28;2.78;;;5.70;86.50;;;;;;5472492;26;20403;-62
2024/04/21 05:45:24;;;;;;;4.47;2.90;;;5.70;87.30;;;;;;5466745;26;19998;-61
2024/04/21 05:47:49;;;;;;;3.38;3.08;;;5.70;86.60;;;;;;5472433;26;20504;-62
2024/04/21 05:50:15;;;;;;;3.92;3.30;;;5.70;86.80;;;;;;5462830;26;20013;-60
2024/04/21 05:52:40;;;;;;;5.75;3.67;;;5.70;86.80;;;;;;5466977;26;20121;-61
2024/04/21 05:55:06;;;;;;;5.72;3.88;;;5.80;86.80;;;;;;5468753;26;19998;-62
2024/04/21 05:57:31;;;;;;;6.65;4.15;;;5.80;86.60;;;;;;5464786;26;20001;-61
2024/04/21 05:59:57;;;;;;;5.68;4.55;;;5.80;86.60;;;;;;5482693;26;19998;-62
2024/04/21 06:02:23;;;;;;;6.43;4.57;;;5.90;86.70;;;;;;5469783;26;20002;-61
2024/04/21 06:04:48;;;;;;;5.65;4.78;;;5.90;86.60;;;;;;5468529;26;20437;-62
2024/04/21 06:07:14;;;;;;;6.90;5.28;;;5.90;86.80;;;;;;5469875;26;20386;-62
2024/04/21 06:09:40;;;;;;;7.18;5.55;;;5.90;86.90;;;;;;5467250;26;19995;-62
2024/04/21 06:12:06;;;;;;;7.40;5.97;;;6.00;87.00;;;;;;5472345;26;20070;-61
2024/04/21 06:14:32;;;;;;;8.27;5.63;;;6.00;87.00;;;;;;5438047;26;20018;-61
2024/04/21 06:16:58;;;;;;;7.70;6.30;;;6.00;87.00;;;;;;5450080;26;20006;-61
2024/04/21 06:19:23;;;;;;;8.23;6.00;;;6.10;87.00;;;;;;5468120;26;20603;-61
2024/04/21 06:21:49;;;;;;;7.18;6.20;;;6.10;87.00;;;;;;5463828;26;20006;-61
2024/04/21 06:24:14;;;;;;;8.38;6.30;;;6.10;87.00;;;;;;5473250;26;20019;-61
2024/04/21 06:26:41;;;;;;;6.88;6.10;;;6.20;86.90;;;;;;5463897;26;20404;-62
2024/04/21 06:29:07;;;;;;;8.25;6.30;;;6.20;86.70;;;;;;5447322;26;19991;-61
2024/04/21 06:31:33;;;;;;;7.60;6.05;;;6.20;86.60;;;;;;5453247;26;20010;-61
2024/04/21 06:33:58;;;;;;;7.38;5.75;;;6.30;86.80;;;;;;5447677;26;20017;-62
2024/04/21 06:36:24;;;;;;;8.30;6.35;;;6.30;86.90;;;;;;5447422;26;20011;-61
2024/04/21 06:38:51;;;;;;;8.48;6.30;;;6.30;87.00;;;;;;5450278;26;20002;-62
2024/04/21 06:41:17;;;;;;;7.22;6.15;;;6.30;86.90;;;;;;5454178;26;20454;-62
2024/04/21 06:43:42;;;;;;;6.32;5.72;;;6.40;87.10;;;;;;5455766;26;19991;-60
2024/04/21 06:46:08;;;;;;;6.85;6.15;;;6.40;86.90;;;;;;5455777;26;19995;-62
2024/04/21 06:48:34;;;;;;;8.63;6.00;;;6.40;86.80;;;;;;5449039;26;20327;-62
2024/04/21 06:50:59;;;;;;;6.40;5.60;;;6.50;87.00;;;;;;5426727;26;19994;-62
2024/04/21 06:53:25;;;;;;;8.85;5.80;;;6.50;86.70;;;;;;5448616;26;20010;-62
2024/04/21 06:55:51;;;;;;;8.15;6.25;;;6.50;86.70;;;;;;5450986;26;20010;-62
2024/04/21 06:58:18;;;;;;;7.20;5.78;;;6.50;86.80;;;;;;5454365;26;20450;-63
2024/04/21 07:00:44;;;;;;;3.20;2.20;;;6.50;86.60;;;;;;5459855;26;19991;-63
2024/04/21 07:03:10;;;;;;;2.50;2.30;;;6.40;84.90;;;;;;5458208;26;20397;-63
2024/04/21 07:05:36;;;;;;;1.85;1.65;;;6.30;83.50;;;;;;5435434;26;20009;-61
2024/04/21 07:08:02;;;;;;;0.93;0.93;;;6.10;83.20;;;;;;5466082;26;20010;-62
2024/04/21 07:10:27;;;;;;;1.30;1.20;;;5.90;83.30;;;;;;5470445;26;20013;-62
2024/04/21 07:12:53;;;;;;;0.57;0.57;;;5.70;83.70;;;;;;5465504;26;20545;-61
2024/04/21 07:15:19;;;;;;;0.68;0.60;;;5.50;84.20;;;;;;5463374;26;20013;-62
2024/04/21 07:17:44;;;;;;;1.30;1.00;;;5.30;84.30;;;;;;5467984;26;20377;-62
2024/04/21 07:20:10;;;;;;;0.70;0.70;;;5.20;84.50;;;;;;5470990;26;20062;-62
2024/04/21 07:22:35;;;;;;;0.52;0.52;;;5.00;84.90;;;;;;5459650;26;19994;-62
2024/04/21 07:25:01;;;;;;;0.80;0.80;;;4.90;85.50;;;;;;5464866;26;19994;-62
2024/04/21 07:27:27;;;;;;;1.25;0.90;;;4.70;85.70;;;;;;5472398;26;20018;-63
2024/04/21 07:29:53;;;;;;;0.70;0.55;;;4.60;86.10;;;;;;5467714;26;20446;-61
2024/04/21 07:32:19;;;;;;;0.68;0.68;;;4.50;86.60;;;;;;5466339;26;20009;-58
2024/04/21 07:34:45;;;;;;;1.95;1.35;;;4.40;86.80;;;;;;5473671;26;20005;-62
2024/04/21 07:37:10;;;;;;;1.60;1.35;;;4.40;87.00;;;;;;5464502;26;20381;-60
2024/04/21 07:39:36;;;;;;;1.90;1.30;;;4.30;87.20;;;;;;5466814;26;19994;-61
2024/04/21 07:42:01;;;;;;;1.70;1.33;;;4.30;87.50;;;;;;5472886;26;19990;-61
2024/04/21 07:44:27;;;;;;;2.85;1.10;;;4.20;87.50;;;;;;5466691;26;20597;-62
2024/04/21 07:46:53;;;;;;;1.45;0.70;;;4.20;87.70;;;;;;5467351;26;20007;-61
2024/04/21 07:49:18;;;;;;;2.20;1.02;;;4.20;87.90;;;;;;5469583;26;19994;-63
2024/04/21 07:51:44;;;;;;;4.00;1.65;;;4.10;88.00;;;;;;5464837;26;20090;-62
2024/04/21 07:54:09;;;;;;;2.53;1.83;;;4.10;88.10;;;;;;5467065;26;20114;-62
2024/04/21 07:56:35;;;;;;;4.28;1.70;;;4.10;88.20;;;;;;5462192;26;19999;-63
2024/04/21 07:59:00;;;;;;;3.22;1.85;;;4.10;88.30;;;;;;5464194;26;20041;-62
2024/04/21 08:01:26;;;;;;;3.05;1.70;;;4.00;89.10;;;;;;5474502;26;20010;-62
2024/04/21 08:03:51;;;;;;;4.25;1.50;;;4.00;88.30;;;;;;5472543;26;19994;-63
2024/04/21 08:06:17;;;;;;;0.93;0.88;;;4.00;88.40;;;;;;5468907;26;20009;-63
2024/04/21 08:08:43;;;;;;;2.58;1.40;;;4.00;88.40;;;;;;5466026;26;20006;-63
2024/04/21 08:11:09;;;;;;;4.43;2.00;;;4.00;88.40;;;;;;5476373;26;20465;-62
2024/04/21 08:13:35;;;;;;;2.78;1.40;;;4.00;88.40;;;;;;5475458;26;19998;-63
2024/04/21 08:16:01;;;;;;;3.47;1.40;;;4.00;88.60;;;;;;5473260;26;20067;-62
2024/04/21 08:18:26;;;;;;;3.35;1.73;;;3.90;88.60;;;;;;5467956;26;20386;-61
2024/04/21 08:20:52;;;;;;;3.85;1.83;;;4.00;88.60;;;;;;5469425;26;20018;-60
2024/04/21 08:23:18;;;;;;;3.97;1.92;;;4.00;88.90;;;;;;5470016;26;20468;-62
2024/04/21 08:25:46;;;;;;;4.93;2.22;;;4.00;88.80;;;;;;5473221;26;19995;-61
2024/04/21 08:28:13;;;;;;;3.33;1.85;;;4.00;89.10;;;;;;5477497;26;20069;-63
2024/04/21 08:30:39;;;;;;;3.38;1.92;;;3.90;88.90;;;;;;5475865;26;20006;-62
2024/04/21 08:33:05;;;;;;;2.00;1.20;;;4.00;89.10;;;;;;5480848;26;20411;-61
2024/04/21 08:35:31;;;;;;;1.08;0.98;;;3.90;89.00;;;;;;5473587;26;20066;-62
2024/04/21 08:37:56;;;;;;;0.70;0.70;;;3.90;89.10;;;;;;5470287;26;20005;-62
2024/04/21 08:40:22;;;;;;;0.60;0.60;;;3.90;89.60;;;;;;5469902;26;20422;-63
2024/04/21 08:42:51;;;;;;;0.88;0.77;;;3.90;89.20;;;;;;5439145;26;20473;-62
2024/04/21 08:45:20;;;;;;;1.20;0.77;;;3.90;89.40;;;;;;5477634;26;20474;-63
2024/04/21 08:47:46;;;;;;;0.90;0.70;;;3.80;89.40;;;;;;5477451;26;20496;-62
2024/04/21 08:50:13;;;;;;;1.20;1.10;;;3.80;89.80;;;;;;5475927;26;19998;-62
2024/04/21 08:52:39;;;;;;;1.50;0.80;;;3.70;89.40;;;;;;5478198;26;20384;-62
2024/04/21 08:55:07;;;;;;;1.30;1.20;;;3.70;89.60;;;;;;5475058;26;20030;-62
2024/04/21 08:57:33;;;;;;;1.27;1.17;;;3.70;89.70;;;;;;5435096;26;20009;-63
2024/04/21 09:00:01;;;;;;;2.03;1.75;;;3.70;89.90;;;;;;5469557;26;20595;-62
2024/04/21 09:02:28;;;;;;;2.13;2.03;;;3.70;89.90;;;;;;5464881;26;20009;-63
2024/04/21 09:04:56;;;;;;;3.55;2.92;;;3.70;89.90;;;;;;5477573;26;20010;-63
2024/04/21 09:07:25;;;;;;;5.07;4.68;;;3.70;90.00;;;;;;5466097;26;20013;-63
2024/04/21 09:09:51;;;;;;;8.32;7.47;;;3.70;89.90;;;;;;5463021;26;20496;-63
2024/04/21 09:12:17;;;;;;;10.70;9.60;;;3.70;89.90;;;;;;5478935;26;20454;-63
2024/04/21 09:14:46;;;;;;;4.30;3.88;;;3.80;90.00;;;;;;5471606;26;20005;-63
2024/04/21 09:17:12;;;;;;;5.78;5.22;;;3.80;90.00;;;;;;5478977;26;20015;-63
2024/04/21 09:19:37;;;;;;;6.65;5.95;;;3.80;90.00;;;;;;5478653;26;20082;-63
2024/04/21 09:22:03;;;;;;;5.18;4.30;;;3.90;90.00;;;;;;5477059;26;20004;-63
2024/04/21 09:24:29;;;;;;;6.15;3.35;;;3.90;90.00;;;;;;5476161;26;20090;-63
2024/04/21 09:26:55;;;;;;;4.07;2.75;;;3.90;90.00;;;;;;5469807;26;20396;-63
2024/04/21 09:29:21;;;;;;;1.90;1.70;;;4.00;90.00;;;;;;5472893;26;20023;-63
2024/04/21 09:31:47;;;;;;;2.85;1.83;;;4.00;90.10;;;;;;5485326;26;20095;-63
2024/04/21 09:34:13;;;;;;;1.77;0.98;;;4.10;90.00;;;;;;5474344;26;20366;-63
2024/04/21 09:36:39;;;;;;;1.52;1.20;;;4.10;90.00;;;;;;5480908;26;20020;-63
2024/04/21 09:39:06;;;;;;;3.17;1.50;;;4.10;90.00;;;;;;5479388;26;19998;-62
2024/04/21 09:41:33;;;;;;;1.30;1.20;;;4.20;90.00;;;;;;5472077;26;20002;-62
2024/04/21 09:43:59;;;;;;;1.45;1.35;;;4.20;90.00;;;;;;5470817;26;19998;-62
2024/04/21 09:46:25;;;;;;;2.15;2.00;;;4.30;90.00;;;;;;5480383;26;20454;-62
2024/04/21 09:48:51;;;;;;;2.40;1.70;;;4.30;90.20;;;;;;5477816;26;20012;-62
2024/04/21 09:51:17;;;;;;;3.28;2.30;;;4.40;89.80;;;;;;5479758;26;20006;-62
2024/04/21 09:53:47;;;;;;;2.28;1.85;;;4.40;89.70;;;;;;5444008;26;20009;-62
2024/04/21 09:56:19;;;;;;;1.88;1.77;;;4.50;89.70;;;;;;5471830;26;20010;-62
2024/04/21 09:58:49;;;;;;;3.22;2.88;;;4.50;89.70;;;;;;5484127;26;20066;-62
2024/04/21 10:01:27;;;;;;;2.40;2.20;;;4.60;89.50;;;;;;5479832;26;20010;-62
2024/04/21 10:03:58;;;;;;;4.95;3.30;;;4.60;89.80;;;;;;5478120;26;20047;-62
2024/04/21 10:06:25;;;;;;;3.75;2.65;;;4.70;89.40;;;;;;5476241;26;20030;-61
2024/04/21 10:08:53;;;;;;;4.35;2.47;;;4.70;89.30;;;;;;5479854;26;20010;-62
2024/04/21 10:11:19;;;;;;;2.00;1.75;;;4.70;89.00;;;;;;5469689;26;19990;-61
2024/04/21 10:13:45;;;;;;;2.30;1.92;;;4.80;89.10;;;;;;5476811;26;20330;-60
2024/04/21 10:16:12;;;;;;;2.75;2.05;;;4.80;89.10;;;;;;5470790;26;20038;-62
2024/04/21 10:18:38;;;;;;;2.17;1.98;;;4.90;89.10;;;;;;5471786;26;20010;-62
2024/04/21 10:21:04;;;;;;;2.72;2.50;;;4.90;89.30;;;;;;5440858;26;20076;-61
2024/04/21 10:23:31;;;;;;;2.42;2.00;;;4.90;89.60;;;;;;5470606;26;20075;-62
2024/04/21 10:25:57;;;;;;;4.93;2.08;;;5.00;89.70;;;;;;5476564;26;20009;-62
2024/04/21 10:28:28;;;;;;;2.35;2.03;;;5.10;89.80;;;;;;5475483;26;20337;-63
2024/04/21 10:31:07;;;;;;;2.67;2.20;;;5.20;90.00;;;;;;5465339;26;20003;-62
2024/04/21 10:33:35;;;;;;;3.30;1.77;;;5.30;90.10;;;;;;5470552;26;20020;-60
2024/04/21 10:36:01;;;;;;;2.15;2.00;;;5.30;89.80;;;;;;5470822;26;20013;-61
2024/04/21 10:38:26;;;;;;;2.35;2.08;;;5.40;89.80;;;;;;5468302;26;20027;-61
2024/04/21 10:40:56;;;;;;;3.15;2.63;;;5.50;90.00;;;;;;5481293;26;20459;-62
2024/04/21 10:43:24;;;;;;;3.17;2.15;;;5.60;90.00;;;;;;5479366;26;20009;-59
2024/04/21 10:45:54;;;;;;;2.78;1.98;;;5.60;89.80;;;;;;5480173;26;19998;-59
2024/04/21 10:48:22;;;;;;;2.30;1.90;;;5.70;89.40;;;;;;5475756;26;20002;-59
2024/04/21 10:50:48;;;;;;;2.33;1.80;;;5.70;88.70;;;;;;5469442;26;20458;-60
2024/04/21 10:53:14;;;;;;;2.75;2.08;;;5.70;88.70;;;;;;5474559;26;19995;-61
2024/04/21 10:55:39;;;;;;;3.08;1.90;;;5.80;87.90;;;;;;5464767;26;20009;-60
2024/04/21 10:58:06;;;;;;;4.75;2.10;;;5.80;87.90;;;;;;5479688;26;20002;-61
2024/04/21 11:00:33;;;;;;;3.00;2.00;;;5.80;87.90;;;;;;5477146;26;20456;-59
2024/04/21 11:02:58;;;;;;;3.40;2.17;;;5.80;87.70;;;;;;5469286;26;20002;-60
2024/04/21 11:05:31;;;;;;;4.07;2.25;;;5.80;88.10;;;;;;5479655;26;20346;-60
2024/04/21 11:07:57;;;;;;;4.25;2.03;;;5.80;87.90;;;;;;5473768;26;19994;-60
2024/04/21 11:10:23;;;;;;;5.43;2.08;;;5.80;88.50;;;;;;5461093;26;20014;-61
2024/04/21 11:12:49;;;;;;;4.10;2.10;;;5.90;87.80;;;;;;5482837;26;20381;-61
2024/04/21 11:15:17;;;;;;;5.78;2.28;;;5.90;87.20;;;;;;5463915;26;20465;-60
2024/04/21 11:17:43;;;;;;;3.08;1.88;;;5.90;87.00;;;;;;5475635;26;20039;-61
2024/04/21 11:20:10;;;;;;;4.88;2.65;;;5.90;86.50;;;;;;5460797;26;20052;-61
2024/04/21 11:22:37;;;;;;;5.70;2.83;;;6.00;86.70;;;;;;5473043;26;20074;-62
2024/04/21 11:25:03;;;;;;;3.67;2.42;;;6.00;86.90;;;;;;5475348;26;20004;-61
2024/04/21 11:27:28;;;;;;;4.60;2.20;;;6.10;87.10;;;;;;5470348;26;20535;-61
2024/04/21 11:29:55;;;;;;;3.10;2.25;;;6.00;86.30;;;;;;5473467;26;20002;-60
2024/04/21 11:32:21;;;;;;;4.45;2.45;;;6.10;86.10;;;;;;5479506;26;19994;-60
2024/04/21 11:34:47;;;;;;;6.15;2.40;;;6.10;86.00;;;;;;5472775;26;19990;-60
2024/04/21 11:37:20;;;;;;;5.05;2.42;;;6.10;85.20;;;;;;5478418;26;19994;-61
2024/04/21 11:39:46;;;;;;;9.30;2.17;;;6.10;85.00;;;;;;5464451;26;20009;-60
2024/04/21 11:42:12;;;;;;;10.63;5.78;;;6.10;84.40;;;;;;5465821;26;20030;-61
2024/04/21 11:44:37;;;;;;;5.28;2.60;;;6.10;85.30;;;;;;5461903;26;20003;-61
2024/04/21 11:47:03;;;;;;;3.75;2.53;;;6.00;83.80;;;;;;5478757;26;20010;-62
2024/04/21 11:49:29;;;;;;;7.57;2.78;;;6.00;84.00;;;;;;5477042;26;20070;-61
2024/04/21 11:51:55;;;;;;;3.55;2.05;;;6.00;84.70;;;;;;5474500;26;20013;-60
2024/04/21 11:54:20;;;;;;;3.47;2.30;;;6.00;85.70;;;;;;5465488;26;20068;-60
2024/04/21 11:56:46;;;;;;;5.15;1.80;;;6.00;86.00;;;;;;5463130;26;19999;-61
2024/04/21 11:59:11;;;;;;;5.03;1.90;;;6.10;86.00;;;;;;5460406;26;20002;-62
2024/04/21 12:01:37;;;;;;;4.30;1.77;;;6.10;85.70;;;;;;5478305;26;20013;-62
2024/04/21 12:04:03;;;;;;;9.20;3.60;;;6.20;84.00;;;;;;5481109;26;20353;-62
2024/04/21 12:06:28;;;;;;;4.35;2.10;;;6.30;83.60;;;;;;5468893;26;20014;-62
2024/04/21 12:08:54;;;;;;;3.25;2.22;;;6.30;83.80;;;;;;5462560;26;20029;-61
2024/04/21 12:11:20;;;;;;;8.80;3.88;;;6.40;83.80;;;;;;5436380;26;19995;-61
2024/04/21 12:13:45;;;;;;;6.63;2.40;;;6.40;82.80;;;;;;5478616;26;20399;-61
2024/04/21 12:16:11;;;;;;;2.97;1.83;;;6.50;82.90;;;;;;5478020;26;20435;-62
2024/04/21 12:18:37;;;;;;;3.92;1.80;;;6.60;82.00;;;;;;5474099;26;19998;-63
2024/04/21 12:21:02;;;;;;;3.78;1.98;;;6.60;81.60;;;;;;5467454;26;20503;-63
2024/04/21 12:23:28;;;;;;;4.50;1.70;;;6.70;81.40;;;;;;5467275;26;20470;-62
2024/04/21 12:25:54;;;;;;;3.35;1.60;;;6.80;82.10;;;;;;5473964;26;20006;-63
2024/04/21 12:28:19;;;;;;;3.60;1.30;;;6.80;81.10;;;;;;5476381;26;20469;-63
2024/04/21 12:30:45;;;;;;;2.33;1.40;;;6.90;80.10;;;;;;5475315;26;20560;-63
2024/04/21 12:33:11;;;;;;;4.10;1.42;;;6.90;80.80;;;;;;5474400;26;20485;-62
2024/04/21 12:35:36;;;;;;;3.60;1.48;;;7.00;79.60;;;;;;5481364;26;19994;-63
2024/04/21 12:38:03;;;;;;;4.60;1.30;;;7.10;79.40;;;;;;5473056;26;20009;-62
2024/04/21 12:40:29;;;;;;;2.60;1.23;;;7.10;78.90;;;;;;5471856;26;20025;-63
2024/04/21 12:42:54;;;;;;;3.22;1.10;;;7.10;77.00;;;;;;5477898;26;20492;-63
2024/04/21 12:45:20;;;;;;;3.53;1.58;;;7.10;77.20;;;;;;5476280;26;20017;-61
2024/04/21 12:47:46;;;;;;;2.70;1.17;;;7.20;76.00;;;;;;5481917;26;19998;-62
2024/04/21 12:50:11;;;;;;;4.22;1.40;;;7.20;76.40;;;;;;5471974;26;20080;-61
2024/04/21 12:52:37;;;;;;;3.33;1.33;;;7.30;76.00;;;;;;5472999;26;20067;-63